createdAt,value
2019-02-18T06:38:57.818Z,30.95
2019-02-18T06:41:29.112Z,33.15
2019-02-18T06:44:01.361Z,28.75
2019-02-18T06:46:34.918Z,24.98
2019-02-18T06:49:08.057Z,61.83
2019-02-18T06:51:40.837Z,23.85
2019-02-18T06:54:13.316Z,31.60
2019-02-18T06:56:46.840Z,35.70
2019-02-18T06:59:32.061Z,27.15
2019-02-18T07:02:05.934Z,30.40
2019-02-18T07:04:40.435Z,25.77
2019-02-18T07:07:13.089Z,25.03
2019-02-18T08:16:47.765Z,12.85
2019-02-18T08:19:21.722Z,16.55
2019-02-18T08:24:27.148Z,18.20
2019-02-18T08:26:59.814Z,21.40
2019-02-18T08:29:32.906Z,16.00
2019-02-18T08:32:04.210Z,14.47
2019-02-18T08:34:36.698Z,11.60
2019-02-18T08:37:11.249Z,12.85
2019-02-18T08:39:43.833Z,23.35
2019-02-18T08:42:16.354Z,14.13
2019-02-18T08:44:50.859Z,15.63
2019-02-18T08:47:26.036Z,15.70
2019-02-18T08:49:56.894Z,11.18
2019-02-18T08:52:27.467Z,13.60
2019-02-18T08:55:01.570Z,11.75
2019-02-18T08:57:32.399Z,12.75
2019-02-18T09:00:04.798Z,19.50
2019-02-18T09:02:37.297Z,18.05
2019-02-18T09:05:11.823Z,12.35
2019-02-18T09:07:46.014Z,12.13
2019-02-18T09:10:17.592Z,12.93
2019-02-18T09:12:50.670Z,10.48
2019-02-18T09:15:22.676Z,8.53
2019-02-18T09:17:52.953Z,9.58
2019-02-18T09:20:25.529Z,15.13
2019-02-18T09:22:57.190Z,6.28
2019-02-18T09:25:30.786Z,7.90
2019-02-18T09:28:02.662Z,11.15
2019-02-18T09:30:34.507Z,5.08
2019-02-18T09:33:06.202Z,6.17
2019-02-18T09:35:37.096Z,18.42
2019-02-18T09:38:08.758Z,8.38
2019-02-18T09:40:44.588Z,14.10
2019-02-18T09:43:13.597Z,18.55
2019-02-18T09:45:47.767Z,15.50
2019-02-18T09:48:18.176Z,6.95
2019-02-18T09:50:51.532Z,25.95
2019-02-18T09:53:31.228Z,16.10
2019-02-18T09:56:02.956Z,26.02
2019-02-18T09:58:34.468Z,8.80
2019-02-18T10:01:07.789Z,16.77
2019-02-18T10:03:40.757Z,10.03
2019-02-18T10:06:11.805Z,11.83
2019-02-18T10:08:47.450Z,14.43
2019-02-18T10:11:18.900Z,12.18
2019-02-18T10:13:53.989Z,14.35
2019-02-18T10:16:25.789Z,12.20
2019-02-18T10:18:57.981Z,4.97
2019-02-18T10:21:29.361Z,13.22
2019-02-18T10:24:03.544Z,15.38
2019-02-18T10:26:34.359Z,13.98
2019-02-18T10:29:05.694Z,21.62
2019-02-18T10:31:37.758Z,16.30
2019-02-18T10:34:11.054Z,26.87
2019-02-18T10:36:42.505Z,20.02
2019-02-18T10:39:15.504Z,6.97
2019-02-18T10:41:46.490Z,10.37
2019-02-18T10:44:18.576Z,33.90
2019-02-18T10:46:50.362Z,16.02
2019-02-18T10:49:22.128Z,9.33
2019-02-18T10:51:56.834Z,9.05
2019-02-18T10:54:29.108Z,7.05
2019-02-18T10:57:01.068Z,15.93
2019-02-18T10:59:31.428Z,13.93
2019-02-18T11:02:03.494Z,13.38
2019-02-18T11:04:35.926Z,27.27
2019-02-18T11:07:06.755Z,8.20
2019-02-18T11:09:37.596Z,12.55
2019-02-18T11:12:10.471Z,30.95
2019-02-18T11:14:41.346Z,9.05
2019-02-18T11:17:12.151Z,5.62
2019-02-18T11:19:43.795Z,17.40
2019-02-18T11:22:16.166Z,7.97
2019-02-18T11:24:48.115Z,15.88
2019-02-18T11:27:19.823Z,16.00
2019-02-18T11:29:50.977Z,15.98
2019-02-18T11:32:21.891Z,15.63
2019-02-18T11:34:53.530Z,8.35
2019-02-18T11:37:25.491Z,9.80
2019-02-18T11:39:56.722Z,15.88
2019-02-18T11:42:28.681Z,7.55
2019-02-18T11:45:00.953Z,10.05
2019-02-18T11:47:33.482Z,9.50
2019-02-18T11:50:10.203Z,18.98
2019-02-18T11:52:43.156Z,14.95
2019-02-18T11:55:14.534Z,17.42
2019-02-18T11:57:45.273Z,20.40
2019-02-18T12:00:19.693Z,14.85
2019-02-18T12:02:51.739Z,11.48
2019-02-18T12:05:22.594Z,14.00
2019-02-18T12:07:54.656Z,9.45
2019-02-18T12:10:25.690Z,12.13
2019-02-18T12:12:59.189Z,13.18
2019-02-18T12:15:30.551Z,10.60
2019-02-18T12:18:01.167Z,16.12
2019-02-18T12:20:31.832Z,12.95
2019-02-18T12:23:04.472Z,12.90
2019-02-18T12:25:35.413Z,17.35
2019-02-18T12:28:08.356Z,14.20
2019-02-18T12:30:40.386Z,20.85
2019-02-18T12:33:10.989Z,12.55
2019-02-18T12:35:43.166Z,17.57
2019-02-18T12:38:17.343Z,11.93
2019-02-18T12:40:48.306Z,7.28
2019-02-18T12:43:19.220Z,14.43
2019-02-18T12:45:49.665Z,15.75
2019-02-18T12:48:22.041Z,15.75
2019-02-18T12:50:54.102Z,8.98
2019-02-18T12:53:24.374Z,13.28
2019-02-18T12:55:55.465Z,19.00
2019-02-18T12:58:26.822Z,9.70
2019-02-18T13:01:00.517Z,16.73
2019-02-18T13:03:32.130Z,20.90
2019-02-18T13:06:04.330Z,11.60
2019-02-18T13:08:34.559Z,15.72
2019-02-18T13:11:05.827Z,9.68
2019-02-18T13:13:48.516Z,13.68
2019-02-18T13:16:19.246Z,10.85
2019-02-18T13:18:49.984Z,16.23
2019-02-18T13:21:21.330Z,19.75
2019-02-18T13:23:53.400Z,10.95
2019-02-18T13:26:25.762Z,21.33
2019-02-18T13:29:01.214Z,20.75
2019-02-18T13:31:32.362Z,18.57
2019-02-18T13:34:03.618Z,30.17
2019-02-18T13:36:35.557Z,22.80
2019-02-18T13:39:08.750Z,13.72
2019-02-18T13:41:40.922Z,24.52
2019-02-18T13:44:11.643Z,11.85
2019-02-18T13:46:42.842Z,14.50
2019-02-18T13:49:15.554Z,17.60
2019-02-18T13:51:46.501Z,10.68
2019-02-18T13:54:17.749Z,9.05
2019-02-18T13:56:48.884Z,13.85
2019-02-18T13:59:19.319Z,10.88
2019-02-18T14:01:50.775Z,20.48
2019-02-18T14:04:22.727Z,12.05
2019-02-18T14:06:56.119Z,7.37
2019-02-18T14:09:26.754Z,8.18
2019-02-18T14:12:00.896Z,9.43
2019-02-18T14:14:32.381Z,17.65
2019-02-18T14:17:05.607Z,24.63
2019-02-18T14:19:36.233Z,18.87
2019-02-18T14:22:08.528Z,19.92
2019-02-18T14:24:39.971Z,19.30
2019-02-18T14:27:10.098Z,11.28
2019-02-18T14:29:42.441Z,17.92
2019-02-18T14:32:13.700Z,24.23
2019-02-18T14:34:47.100Z,20.97
2019-02-18T14:37:18.148Z,38.08
2019-02-18T14:39:48.956Z,26.00
2019-02-18T14:42:24.451Z,12.15
2019-02-18T14:44:53.700Z,11.83
2019-02-18T14:47:24.823Z,9.20
2019-02-18T14:49:56.595Z,11.80
2019-02-18T14:52:27.124Z,9.25
2019-02-18T14:54:57.863Z,12.47
2019-02-18T14:57:28.590Z,14.23
2019-02-18T15:00:00.763Z,13.58
2019-02-18T15:02:32.776Z,10.78
2019-02-18T15:05:06.516Z,20.80
2019-02-18T15:07:36.750Z,14.58
2019-02-18T15:10:10.312Z,12.90
2019-02-18T15:12:40.672Z,12.10
2019-02-18T15:15:12.293Z,13.03
2019-02-18T15:17:42.460Z,10.80
2019-02-18T15:20:16.459Z,18.48
2019-02-18T15:22:49.031Z,17.77
2019-02-18T15:25:19.356Z,16.40
2019-02-18T15:27:50.507Z,15.68
2019-02-18T15:30:22.099Z,12.95
2019-02-18T15:32:52.567Z,12.90
2019-02-18T15:35:23.504Z,13.40
2019-02-18T15:37:55.890Z,21.57
2019-02-18T15:40:26.814Z,12.85
2019-02-18T15:42:57.140Z,16.82
2019-02-18T15:45:28.174Z,10.23
2019-02-18T15:48:01.819Z,17.67
2019-02-18T15:50:33.598Z,14.63
2019-02-18T15:53:06.691Z,25.62
2019-02-18T15:55:36.944Z,13.55
2019-02-18T15:58:08.386Z,19.15
2019-02-18T16:00:39.623Z,32.40
2019-02-18T16:03:10.469Z,29.35
2019-02-18T16:05:42.587Z,23.95
2019-02-18T16:08:14.088Z,39.67
2019-02-18T16:10:45.854Z,20.82
2019-02-18T16:13:16.478Z,31.70
2019-02-18T16:15:46.969Z,26.68
2019-02-18T16:18:17.636Z,26.23
2019-02-18T16:20:49.696Z,30.40
2019-02-18T16:23:22.476Z,24.37
2019-02-18T16:25:53.722Z,30.75
2019-02-18T16:28:24.348Z,20.92
2019-02-18T16:30:55.798Z,19.62
2019-02-18T16:33:27.047Z,38.08
2019-02-18T16:35:57.773Z,25.08
2019-02-18T16:38:28.508Z,33.53
2019-02-18T16:40:59.774Z,34.33
2019-02-18T16:43:30.696Z,38.85
2019-02-18T16:46:01.631Z,34.25
2019-02-18T16:48:33.294Z,46.23
2019-02-18T16:51:03.936Z,55.85
2019-02-18T16:53:34.756Z,54.13
2019-02-18T16:56:06.813Z,51.83
2019-02-18T16:58:37.547Z,50.73
2019-02-18T17:01:08.790Z,52.45
2019-02-18T17:03:40.063Z,47.98
2019-02-18T17:06:12.614Z,44.35
2019-02-18T17:08:45.607Z,35.52
2019-02-18T17:11:16.850Z,42.93
2019-02-18T17:13:48.805Z,30.45
2019-02-18T17:16:21.482Z,26.52
2019-02-18T17:18:52.519Z,31.30
2019-02-18T17:21:23.662Z,24.77
2019-02-18T17:23:54.497Z,24.95
2019-02-18T17:26:25.146Z,23.00
2019-02-18T17:28:57.287Z,18.95
2019-02-18T17:31:29.223Z,23.20
2019-02-18T17:33:59.476Z,19.65
2019-02-18T17:36:31.381Z,26.80
2019-02-18T17:39:01.886Z,23.77
2019-02-18T17:41:35.407Z,20.82
2019-02-18T17:44:06.505Z,27.62
2019-02-18T17:46:37.827Z,16.32
2019-02-18T17:49:13.508Z,24.80
2019-02-18T17:51:44.088Z,19.25
2019-02-18T17:54:16.812Z,20.45
2019-02-18T17:56:47.637Z,27.55
2019-02-18T17:59:19.907Z,24.43
2019-02-18T18:01:50.444Z,40.92
2019-02-18T18:04:21.379Z,31.90
2019-02-18T18:06:52.518Z,28.92
2019-02-18T18:09:24.167Z,25.08
2019-02-18T18:11:54.696Z,19.92
2019-02-18T18:14:26.944Z,25.88
2019-02-18T18:16:57.598Z,17.48
2019-02-18T18:19:29.050Z,18.12
2019-02-18T18:22:02.851Z,19.95
2019-02-18T18:24:34.603Z,39.23
2019-02-18T18:27:06.178Z,29.77
2019-02-18T18:29:38.356Z,25.92
2019-02-18T18:32:11.821Z,21.23
2019-02-18T18:34:42.963Z,23.15
2019-02-18T18:37:13.902Z,24.65
2019-02-18T18:39:50.169Z,25.90
2019-02-18T18:42:21.723Z,29.82
2019-02-18T18:44:53.193Z,26.12
2019-02-18T18:47:24.645Z,33.80
2019-02-18T18:49:55.449Z,35.98
2019-02-18T18:52:27.273Z,31.97
2019-02-18T18:54:58.754Z,29.90
2019-02-18T18:57:30.105Z,30.50
2019-02-18T19:00:02.067Z,32.45
2019-02-18T19:02:34.115Z,23.67
2019-02-18T19:05:06.587Z,26.25
2019-02-18T19:07:38.658Z,18.20
2019-02-18T19:10:10.118Z,22.37
2019-02-18T19:12:41.315Z,17.80
2019-02-18T19:15:14.230Z,18.73
2019-02-18T19:17:44.550Z,19.82
2019-02-18T19:20:17.870Z,25.97
2019-02-18T19:22:49.316Z,28.15
2019-02-18T19:25:21.463Z,30.43
2019-02-18T19:27:54.259Z,38.92
2019-02-18T19:30:31.033Z,34.98
2019-02-18T19:33:05.857Z,20.62
2019-02-18T19:35:36.697Z,23.45
2019-02-18T19:38:08.362Z,28.60
2019-02-18T19:40:38.874Z,27.90
2019-02-18T19:43:12.404Z,21.02
2019-02-18T19:45:50.427Z,21.23
2019-02-18T19:48:24.792Z,35.08
2019-02-18T19:50:55.364Z,29.50
2019-02-18T19:53:35.299Z,28.20
2019-02-18T19:56:08.569Z,29.12
2019-02-18T19:58:39.192Z,26.30
2019-02-18T20:01:09.788Z,26.95
2019-02-18T20:03:42.297Z,30.23
2019-02-18T20:06:13.031Z,23.60
2019-02-18T20:08:45.300Z,31.40
2019-02-18T20:11:16.751Z,34.50
2019-02-18T20:13:49.730Z,32.20
2019-02-18T20:16:20.263Z,28.98
2019-02-18T20:18:52.942Z,28.05
2019-02-18T20:21:25.310Z,26.68
2019-02-18T20:23:56.347Z,39.13
2019-02-18T20:26:27.593Z,28.00
2019-02-18T20:28:59.971Z,27.30
2019-02-18T20:31:35.110Z,30.27
2019-02-18T20:34:08.864Z,34.75
2019-02-18T20:36:40.148Z,32.38
2019-02-18T20:39:11.088Z,44.95
2019-02-18T20:41:42.129Z,34.00
2019-02-18T20:44:13.066Z,33.25
2019-02-18T20:46:45.849Z,29.98
2019-02-18T20:49:18.418Z,25.85
2019-02-18T20:51:53.962Z,31.90
2019-02-18T20:54:25.155Z,26.00
2019-02-18T20:56:56.553Z,32.67
2019-02-18T20:59:29.951Z,21.43
2019-02-18T21:02:04.368Z,28.80
2019-02-18T21:04:37.049Z,31.45
2019-02-18T21:07:07.389Z,30.08
2019-02-18T21:09:39.642Z,26.62
2019-02-18T21:12:10.475Z,34.08
2019-02-18T21:14:41.207Z,32.42
2019-02-18T21:17:11.961Z,23.60
2019-02-18T21:19:44.089Z,26.52
2019-02-18T21:22:15.453Z,24.65
2019-02-18T21:24:47.717Z,30.25
2019-02-18T21:27:18.964Z,20.75
2019-02-18T21:29:51.024Z,22.55
2019-02-18T21:32:21.963Z,19.70
2019-02-18T21:34:54.666Z,27.37
2019-02-18T21:37:25.481Z,24.20
2019-02-18T21:39:56.805Z,25.88
2019-02-18T21:42:30.097Z,27.87
2019-02-18T21:45:01.671Z,25.15
2019-02-18T21:47:33.937Z,23.18
2019-02-18T21:50:08.463Z,25.17
2019-02-18T21:52:40.322Z,29.63
2019-02-18T21:55:12.215Z,25.88
2019-02-18T21:57:43.022Z,32.78
2019-02-18T22:00:20.726Z,34.73
2019-02-18T22:02:54.163Z,42.20
2019-02-18T22:05:24.950Z,35.95
2019-02-18T22:07:55.776Z,27.27
2019-02-18T22:10:27.560Z,28.60
2019-02-18T22:12:57.954Z,33.67
2019-02-18T22:15:29.402Z,28.85
2019-02-18T22:18:00.748Z,24.07
2019-02-18T22:20:33.326Z,26.60
2019-02-18T22:23:03.886Z,23.87
2019-02-18T22:25:35.506Z,19.23
2019-02-18T22:28:07.334Z,27.25
2019-02-18T22:30:37.895Z,24.32
2019-02-18T22:33:08.630Z,31.85
2019-02-18T22:35:40.894Z,23.45
2019-02-18T22:38:11.119Z,28.23
2019-02-18T22:40:43.478Z,27.65
2019-02-18T22:43:15.869Z,28.50
2019-02-18T22:45:51.814Z,26.70
2019-02-18T22:48:22.757Z,24.10
2019-02-18T22:50:55.901Z,27.70
2019-02-18T22:53:28.879Z,30.13
2019-02-18T22:55:59.972Z,33.23
2019-02-18T22:58:31.938Z,27.55
2019-02-18T23:01:05.387Z,25.95
2019-02-18T23:03:37.493Z,24.45
2019-02-18T23:06:09.353Z,31.10
2019-02-18T23:08:39.565Z,28.10
2019-02-18T23:11:11.225Z,31.60
2019-02-18T23:13:41.541Z,27.15
2019-02-18T23:16:12.402Z,25.95
2019-02-18T23:18:43.932Z,29.67
2019-02-18T23:21:17.532Z,31.65
2019-02-18T23:23:48.779Z,30.50
2019-02-18T23:26:21.144Z,32.50
2019-02-18T23:28:51.467Z,29.75
2019-02-18T23:31:22.613Z,33.00
2019-02-18T23:33:53.552Z,31.73
2019-02-18T23:36:25.644Z,33.75
2019-02-18T23:38:58.353Z,31.62
2019-02-18T23:41:29.435Z,24.50
2019-02-18T23:44:00.471Z,27.30
2019-02-18T23:46:31.819Z,32.30
2019-02-18T23:49:05.201Z,26.33
2019-02-18T23:51:37.352Z,22.93
2019-02-18T23:54:09.031Z,23.85
2019-02-18T23:56:40.177Z,24.90
2019-02-18T23:59:12.855Z,25.32
